메인 페이지
METAR-TAF:

METAR-TAF

공항 :

뉴올리언스, 루이지애나, 미국

위도: 29-59-34N, 경도: 090-15-03W, 고도: 1m

현재 날씨관측

예보는 34분 전, 13:53시(UTC)에 발표되었습니다.
8kt
온도 28°C
습도 70%
기압 1016 hPa
시정: 16.1km
고도 1500ft 상공 구름 보통
고도 15000ft 상공 구름 보통
고도 25000ft 상공 흐림

METAR: KMSY 291353Z 01008KT 10SM SCT015 SCT150 OVC250 28/22 A3001 RMK AO2 SLP165 T02780222

시각: 09:27 (14:27 UTC)

예보

예보는 3 시간 7분 전, 11:20시(UTC)에 발표되었습니다.
예보 대상 시간: 29일 12시부터 30일 18시까지 (UTC)
북북서3kt
시정: 10km
고도 2000ft 상공 구름 보통
고도 14000ft 상공 구름 많음
고도 25000ft 상공 구름 많음
시계 내 소나기
29일 1300시부터 (UTC)
5kt
시정: 10km
고도 2500ft 상공 구름 많음, 적란운.
시계 내 뇌우
29일 2100시부터 (UTC)
5kt
시정: 10km
고도 10000ft 상공 구름 보통, 적란운.
시계 내 뇌우
30일 1300시부터 (UTC)
북동6kt
시정: 10km
고도 1000ft 상공 구름 조금

TAF: KMSY 291120Z 2912/3018 34003KT P6SM VCSH SCT020 BKN140 BKN250 FM291300 36005KT P6SM VCTS BKN025CB FM292100 36005KT P6SM VCTS SCT100CB FM301300 04006KT P6SM FEW010

4,000개 이상의 공항 관측 자료 및 예보 (METAR 및 TAF 보고).

지도상에서 검색 가능한 기상관측소가 노란 점과 빨간 점으로 표시되어 있습니다.

기상관측소 명을 보려면 표시 위로 마우스를 이동하세요.

날씨 관측과 예보를 보려면 클릭하세요.

지도 변경 : 확대하려면 엑스 표시가 있는 녹색 버튼, 축소하려면 빼기 표시가 있는 녹색 버튼, 다음 페이지의 지도를 보려면 녹색 화살표를 클릭하세요.


METAR-TAF: